createdAt,value
2023-02-18T00:02:23.378Z,8.30
2023-02-18T00:04:50.029Z,8.30
2023-02-18T00:07:17.648Z,8.30
2023-02-18T00:09:44.369Z,8.20
2023-02-18T00:12:10.974Z,8.20
2023-02-18T00:14:38.581Z,8.20
2023-02-18T00:17:05.403Z,8.10
2023-02-18T00:19:32.041Z,8.10
2023-02-18T00:21:58.716Z,8.10
2023-02-18T00:24:25.351Z,8.10
2023-02-18T00:26:52.235Z,8.10
2023-02-18T00:29:19.844Z,8.10
2023-02-18T00:31:48.179Z,8.10
2023-02-18T00:34:14.978Z,8.10
2023-02-18T00:36:42.038Z,8.10
2023-02-18T00:39:09.447Z,8.10
2023-02-18T00:41:36.223Z,8.10
2023-02-18T00:44:03.437Z,8.10
2023-02-18T00:46:30.452Z,8.20
2023-02-18T00:48:57.166Z,8.10
2023-02-18T00:51:25.264Z,8.10
2023-02-18T00:53:52.371Z,8.10
2023-02-18T00:56:19.361Z,8.10
2023-02-18T00:58:45.980Z,8.20
2023-02-18T01:01:13.001Z,8.10
2023-02-18T01:03:41.700Z,8.10
2023-02-18T01:06:09.588Z,8.10
2023-02-18T01:08:37.022Z,8.10
2023-02-18T01:11:04.477Z,8.10
2023-02-18T01:13:31.234Z,8.10
2023-02-18T01:15:57.984Z,8.10
2023-02-18T01:18:25.356Z,8.10
2023-02-18T01:20:52.014Z,8.10
2023-02-18T01:23:19.084Z,8.10
2023-02-18T01:25:45.726Z,8.10
2023-02-18T01:28:13.271Z,8.10
2023-02-18T01:30:40.039Z,8.10
2023-02-18T01:33:06.919Z,8.10
2023-02-18T01:35:33.592Z,8.10
2023-02-18T01:38:00.238Z,8.10
2023-02-18T01:40:28.051Z,8.10
2023-02-18T01:42:54.864Z,8.10
2023-02-18T01:45:33.819Z,8.10
2023-02-18T01:48:10.198Z,8.10
2023-02-18T01:50:38.723Z,8.10
2023-02-18T01:53:06.081Z,8.10
2023-02-18T01:55:33.478Z,8.10
2023-02-18T01:58:00.710Z,8.00
2023-02-18T02:00:27.414Z,8.10
2023-02-18T02:02:54.062Z,8.00
2023-02-18T02:05:22.204Z,8.00
2023-02-18T02:08:00.044Z,8.00
2023-02-18T02:10:36.539Z,8.00
2023-02-18T02:13:08.834Z,8.00
2023-02-18T02:15:38.834Z,8.00
2023-02-18T02:18:24.524Z,7.90
2023-02-18T02:20:54.249Z,7.90
2023-02-18T02:23:21.070Z,7.90
2023-02-18T02:25:56.916Z,7.90
2023-02-18T02:28:32.972Z,7.90
2023-02-18T02:31:25.946Z,7.90
2023-02-18T02:34:04.157Z,7.90
2023-02-18T02:36:41.521Z,7.90
2023-02-18T02:39:14.557Z,7.90
2023-02-18T02:41:51.398Z,7.90
2023-02-18T02:44:23.164Z,7.90
2023-02-18T02:46:55.135Z,7.90
2023-02-18T02:49:28.748Z,7.90
2023-02-18T02:52:09.838Z,7.90
2023-02-18T02:54:36.690Z,7.90
2023-02-18T02:57:08.174Z,7.90
2023-02-18T02:59:38.997Z,7.90
2023-02-18T03:02:15.460Z,7.90
2023-02-18T03:05:00.942Z,7.90
2023-02-18T03:07:43.924Z,8.00
2023-02-18T03:10:13.721Z,7.90
2023-02-18T03:12:49.665Z,7.90
2023-02-18T03:15:32.033Z,7.90
2023-02-18T03:17:59.688Z,7.90
2023-02-18T03:20:31.009Z,7.90
2023-02-18T03:22:58.504Z,7.90
2023-02-18T03:25:25.843Z,7.80
2023-02-18T03:27:53.881Z,7.80
2023-02-18T03:30:32.768Z,7.80
2023-02-18T03:33:01.761Z,7.80
2023-02-18T03:35:28.904Z,7.80
2023-02-18T03:38:06.908Z,7.80
2023-02-18T03:40:33.899Z,7.80
2023-02-18T03:43:01.727Z,7.80
2023-02-18T03:45:28.501Z,7.80
2023-02-18T03:47:55.153Z,7.80
2023-02-18T03:50:23.858Z,7.80
2023-02-18T03:52:50.958Z,7.80
2023-02-18T03:55:17.648Z,7.80
2023-02-18T03:57:44.278Z,7.80
2023-02-18T04:00:11.644Z,7.80
2023-02-18T04:02:41.404Z,7.80
2023-02-18T04:05:08.382Z,7.80
2023-02-18T04:07:35.240Z,7.80
2023-02-18T04:10:02.041Z,7.80
2023-02-18T04:12:28.683Z,7.80
2023-02-18T04:14:55.474Z,7.80
2023-02-18T04:17:22.084Z,7.80
2023-02-18T04:19:48.881Z,7.80
2023-02-18T04:22:15.596Z,7.80
2023-02-18T04:24:42.276Z,7.90
2023-02-18T04:27:08.933Z,7.80
2023-02-18T04:29:36.032Z,7.90
2023-02-18T04:32:02.735Z,7.80
2023-02-18T04:34:29.516Z,7.90
2023-02-18T04:36:56.153Z,7.90
2023-02-18T04:39:22.929Z,7.90
2023-02-18T04:41:49.691Z,7.90
2023-02-18T04:44:16.295Z,7.90
2023-02-18T04:46:43.028Z,7.90
2023-02-18T04:49:09.693Z,7.90
2023-02-18T04:51:37.624Z,7.90
2023-02-18T04:54:04.854Z,7.90
2023-02-18T04:56:31.514Z,7.80
2023-02-18T04:58:58.241Z,7.80
2023-02-18T05:01:24.851Z,7.80
2023-02-18T05:03:51.542Z,7.90
2023-02-18T05:06:18.212Z,7.90
2023-02-18T05:08:44.976Z,7.90
2023-02-18T05:11:11.649Z,7.90
2023-02-18T05:13:38.441Z,7.90
2023-02-18T05:16:05.133Z,7.90
2023-02-18T05:18:31.896Z,7.90
2023-02-18T05:20:58.537Z,7.90
2023-02-18T05:23:25.951Z,8.00
2023-02-18T05:25:52.787Z,8.00
2023-02-18T05:28:19.976Z,8.00
2023-02-18T05:30:46.678Z,8.10
2023-02-18T05:33:13.411Z,8.10
2023-02-18T05:35:40.050Z,8.10
2023-02-18T05:38:06.794Z,8.10
2023-02-18T05:40:33.542Z,8.10
2023-02-18T05:43:00.212Z,8.10
2023-02-18T05:45:26.854Z,8.10
2023-02-18T05:47:53.546Z,8.20
2023-02-18T05:50:20.231Z,8.10
2023-02-18T05:52:47.043Z,8.20
2023-02-18T05:55:13.977Z,8.20
2023-02-18T05:57:41.051Z,8.20
2023-02-18T06:00:09.844Z,8.20
2023-02-18T06:02:37.110Z,8.20
2023-02-18T06:05:04.294Z,8.20
2023-02-18T06:07:31.094Z,8.30
2023-02-18T06:09:57.753Z,8.30
2023-02-18T06:12:24.874Z,8.40
2023-02-18T06:14:51.512Z,8.40
2023-02-18T06:17:19.159Z,8.50
2023-02-18T06:19:45.912Z,8.50
2023-02-18T06:22:12.546Z,8.60
2023-02-18T06:24:39.606Z,8.60
2023-02-18T06:27:06.481Z,8.70
2023-02-18T06:29:33.284Z,8.80
2023-02-18T06:32:00.366Z,8.80
2023-02-18T06:34:27.460Z,8.80
2023-02-18T06:36:54.275Z,8.90
2023-02-18T06:39:21.018Z,8.90
2023-02-18T06:41:47.698Z,9.10
2023-02-18T06:44:16.920Z,9.10
2023-02-18T06:46:44.362Z,9.20
2023-02-18T06:49:11.048Z,9.20
2023-02-18T06:51:37.702Z,9.30
2023-02-18T06:54:05.852Z,9.30
2023-02-18T06:56:32.790Z,9.30
2023-02-18T06:58:59.440Z,9.40
2023-02-18T07:01:26.069Z,9.40
2023-02-18T07:03:52.967Z,9.40
2023-02-18T07:06:19.699Z,9.50
2023-02-18T07:08:46.420Z,9.60
2023-02-18T07:11:13.137Z,9.60
2023-02-18T07:13:39.800Z,9.70
2023-02-18T07:16:07.029Z,9.70
2023-02-18T07:18:34.056Z,9.70
2023-02-18T07:21:00.820Z,9.80
2023-02-18T07:23:27.481Z,9.80
2023-02-18T07:26:02.532Z,9.90
2023-02-18T07:28:29.165Z,10.00
2023-02-18T07:30:55.846Z,10.00
2023-02-18T07:33:22.473Z,10.10
2023-02-18T07:35:53.114Z,10.10
2023-02-18T07:38:19.864Z,10.10
2023-02-18T07:40:46.577Z,10.10
2023-02-18T07:43:13.202Z,10.20
2023-02-18T07:45:40.193Z,10.30
2023-02-18T07:48:07.040Z,10.30
2023-02-18T07:50:35.706Z,10.30
2023-02-18T07:53:03.240Z,10.40
2023-02-18T07:55:49.050Z,10.50
2023-02-18T07:58:16.910Z,10.60
2023-02-18T08:00:43.686Z,10.70
2023-02-18T08:03:10.481Z,10.70
2023-02-18T08:05:37.172Z,10.60
2023-02-18T08:08:04.028Z,10.60
2023-02-18T08:10:30.822Z,10.50
2023-02-18T08:12:57.458Z,10.50
2023-02-18T08:15:24.092Z,10.50
2023-02-18T08:17:50.753Z,10.50
2023-02-18T08:20:17.424Z,10.60
2023-02-18T08:22:44.262Z,10.60
2023-02-18T08:25:18.239Z,10.70
2023-02-18T08:27:54.263Z,10.80
2023-02-18T08:30:21.094Z,11.00
2023-02-18T08:32:47.816Z,11.20
2023-02-18T08:35:14.772Z,11.20
2023-02-18T08:37:52.103Z,11.20
2023-02-18T08:40:20.206Z,11.10
2023-02-18T08:42:46.986Z,11.00
2023-02-18T08:45:13.665Z,11.00
2023-02-18T08:48:17.201Z,11.00
2023-02-18T08:50:28.247Z,11.00
2023-02-18T08:52:55.205Z,10.90
2023-02-18T08:55:21.845Z,11.00
2023-02-18T08:57:48.687Z,11.10
2023-02-18T09:00:16.700Z,11.00
2023-02-18T09:02:43.715Z,11.00
2023-02-18T09:05:10.796Z,11.00
2023-02-18T09:07:37.497Z,11.10
2023-02-18T09:10:04.336Z,11.20
2023-02-18T09:12:30.951Z,11.20
2023-02-18T09:14:57.658Z,11.40
2023-02-18T09:17:24.475Z,11.40
2023-02-18T09:19:51.207Z,11.50
2023-02-18T09:22:18.011Z,11.50
2023-02-18T09:24:45.140Z,11.50
2023-02-18T09:27:12.226Z,11.50
2023-02-18T09:29:39.867Z,11.50
2023-02-18T09:32:07.645Z,11.50
2023-02-18T09:34:35.258Z,11.50
2023-02-18T09:37:02.156Z,11.50
2023-02-18T09:39:28.788Z,11.50
2023-02-18T09:42:00.708Z,11.50
2023-02-18T09:44:29.526Z,11.50
2023-02-18T09:46:58.929Z,11.40
2023-02-18T09:49:27.029Z,11.40
2023-02-18T09:51:55.431Z,11.40
2023-02-18T09:54:22.772Z,11.40
2023-02-18T09:56:49.946Z,11.50
2023-02-18T09:59:20.757Z,11.50
2023-02-18T10:01:48.877Z,11.50
2023-02-18T10:04:18.580Z,11.50
2023-02-18T10:06:46.648Z,11.50
2023-02-18T10:09:30.195Z,11.50
2023-02-18T10:12:12.413Z,11.50
2023-02-18T10:14:39.067Z,11.40
2023-02-18T10:17:06.043Z,11.40
2023-02-18T10:19:34.697Z,11.50
2023-02-18T10:22:02.506Z,11.50
2023-02-18T10:24:31.595Z,11.60
2023-02-18T10:26:58.856Z,11.70
2023-02-18T10:29:25.915Z,11.80
2023-02-18T10:31:56.420Z,11.70
2023-02-18T10:34:42.274Z,11.70
2023-02-18T10:37:18.116Z,11.70
2023-02-18T10:40:03.771Z,11.60
2023-02-18T10:42:38.776Z,11.60
2023-02-18T10:45:11.748Z,11.60
2023-02-18T10:48:02.877Z,11.60
2023-02-18T10:50:44.242Z,11.60
2023-02-18T10:53:20.927Z,11.60
2023-02-18T10:55:49.850Z,11.60
2023-02-18T10:58:27.978Z,11.60
2023-02-18T11:00:55.436Z,11.60
2023-02-18T11:03:24.147Z,11.60
2023-02-18T11:05:52.752Z,11.60
2023-02-18T11:08:30.461Z,11.50
2023-02-18T11:10:58.251Z,11.60
2023-02-18T11:13:29.033Z,11.70
2023-02-18T11:15:55.875Z,11.80
2023-02-18T11:18:25.657Z,12.00
2023-02-18T11:20:56.935Z,11.90
2023-02-18T11:23:25.767Z,12.00
2023-02-18T11:26:03.510Z,11.90
2023-02-18T11:28:44.966Z,11.90
2023-02-18T11:31:17.264Z,11.80
2023-02-18T11:33:47.921Z,11.80
2023-02-18T11:36:18.664Z,11.80
2023-02-18T11:38:47.972Z,11.80
2023-02-18T11:41:16.217Z,11.80
2023-02-18T11:43:45.236Z,11.80
2023-02-18T11:46:16.688Z,11.90
2023-02-18T11:48:43.430Z,12.30
2023-02-18T11:51:21.419Z,12.80
2023-02-18T11:54:22.067Z,13.30
2023-02-18T11:56:56.502Z,13.60
2023-02-18T11:59:23.417Z,14.60
2023-02-18T12:01:57.152Z,15.70
2023-02-18T12:04:44.214Z,16.70
2023-02-18T12:07:30.378Z,17.10
2023-02-18T12:09:59.090Z,17.20
2023-02-18T12:12:36.020Z,17.00
2023-02-18T12:15:02.730Z,16.90
2023-02-18T12:17:48.597Z,16.50
2023-02-18T12:20:15.390Z,16.10
2023-02-18T12:22:46.101Z,15.60
2023-02-18T12:25:24.955Z,15.20
2023-02-18T12:28:10.447Z,15.20
2023-02-18T12:31:02.204Z,15.10
2023-02-18T12:33:54.131Z,15.50
2023-02-18T12:36:39.431Z,15.80
2023-02-18T12:39:11.693Z,15.80
2023-02-18T12:41:52.732Z,15.60
2023-02-18T12:44:25.203Z,15.20
2023-02-18T12:47:01.279Z,14.70
2023-02-18T12:49:34.233Z,14.60
2023-02-18T12:52:23.248Z,14.30
2023-02-18T12:55:03.807Z,14.40
2023-02-18T12:57:36.466Z,14.20
2023-02-18T13:00:16.174Z,13.90
2023-02-18T13:03:18.572Z,13.50
2023-02-18T13:05:51.025Z,13.20
2023-02-18T13:08:26.008Z,13.10
2023-02-18T13:11:00.108Z,13.00
2023-02-18T13:13:31.209Z,13.00
2023-02-18T13:16:15.078Z,12.90
2023-02-18T13:18:47.409Z,12.70
2023-02-18T13:21:15.035Z,12.60
2023-02-18T13:24:02.472Z,12.50
2023-02-18T13:26:33.122Z,12.40
2023-02-18T13:29:18.655Z,12.20
2023-02-18T13:31:45.762Z,12.10
2023-02-18T13:34:31.388Z,12.10
2023-02-18T13:37:11.831Z,12.10
2023-02-18T13:39:45.489Z,12.00
2023-02-18T13:42:23.879Z,11.90
2023-02-18T13:44:56.511Z,11.80
2023-02-18T13:47:39.776Z,11.80
2023-02-18T13:50:14.563Z,11.70
2023-02-18T13:52:41.307Z,11.70
2023-02-18T13:55:18.447Z,11.60
2023-02-18T13:57:46.669Z,11.50
2023-02-18T14:00:22.080Z,11.40
2023-02-18T14:02:59.219Z,11.30
2023-02-18T14:05:37.933Z,11.20
2023-02-18T14:08:23.314Z,11.00
2023-02-18T14:11:09.238Z,10.90
2023-02-18T14:13:40.741Z,10.80
2023-02-18T14:16:08.121Z,10.70
2023-02-18T14:18:36.954Z,10.70
2023-02-18T14:21:06.013Z,10.70
2023-02-18T14:23:35.819Z,10.60
2023-02-18T14:26:15.693Z,10.60
2023-02-18T14:28:48.912Z,10.50
2023-02-18T14:31:22.211Z,10.50
2023-02-18T14:34:03.407Z,10.50
2023-02-18T14:36:34.341Z,10.40
2023-02-18T14:39:13.807Z,10.50
2023-02-18T14:42:01.862Z,10.40
2023-02-18T14:44:31.481Z,10.40
2023-02-18T14:47:16.998Z,10.40
2023-02-18T14:49:46.339Z,10.30
2023-02-18T14:52:22.369Z,10.30
2023-02-18T14:54:49.375Z,10.30
2023-02-18T14:57:17.934Z,10.20
2023-02-18T14:59:46.456Z,10.10
2023-02-18T15:02:21.643Z,10.10
2023-02-18T15:04:50.515Z,10.00
2023-02-18T15:07:20.888Z,10.00
2023-02-18T15:09:49.088Z,9.90
2023-02-18T15:12:18.213Z,9.90
2023-02-18T15:14:46.576Z,9.80
2023-02-18T15:17:15.213Z,9.80
2023-02-18T15:19:43.869Z,9.80
2023-02-18T15:22:31.498Z,9.80
2023-02-18T15:24:58.219Z,9.80
2023-02-18T15:27:26.496Z,9.80
2023-02-18T15:29:58.036Z,9.80
2023-02-18T15:32:27.377Z,9.70
2023-02-18T15:35:01.952Z,9.70
2023-02-18T15:37:29.351Z,9.70
2023-02-18T15:39:56.349Z,9.60
2023-02-18T15:42:23.661Z,9.60
2023-02-18T15:44:52.656Z,9.60
2023-02-18T15:47:20.113Z,9.50
2023-02-18T15:49:49.779Z,9.50
2023-02-18T15:52:16.586Z,9.50
2023-02-18T15:54:43.409Z,9.50
2023-02-18T15:57:14.726Z,9.50
2023-02-18T15:59:46.095Z,9.50
2023-02-18T16:02:23.396Z,9.50
2023-02-18T16:04:58.592Z,9.50
2023-02-18T16:07:29.871Z,9.50
2023-02-18T16:10:15.212Z,9.50
2023-02-18T16:12:45.611Z,9.50
2023-02-18T16:15:15.942Z,9.50
2023-02-18T16:17:44.356Z,9.50
2023-02-18T16:20:16.571Z,9.50
2023-02-18T16:22:44.752Z,9.40
2023-02-18T16:25:21.413Z,9.40
2023-02-18T16:27:51.478Z,9.40
2023-02-18T16:30:23.126Z,9.40
2023-02-18T16:32:50.553Z,9.40
2023-02-18T16:35:18.092Z,9.40
2023-02-18T16:37:46.399Z,9.50
2023-02-18T16:40:21.669Z,9.50
2023-02-18T16:42:48.317Z,9.50
2023-02-18T16:45:15.064Z,9.50
2023-02-18T16:47:42.437Z,9.50
2023-02-18T16:50:21.494Z,9.60
2023-02-18T16:52:48.988Z,9.50
2023-02-18T16:55:17.017Z,9.50
2023-02-18T16:57:43.678Z,9.40
2023-02-18T17:00:10.681Z,9.40
2023-02-18T17:02:37.559Z,9.40
2023-02-18T17:05:09.724Z,9.40
2023-02-18T17:07:41.052Z,9.40
2023-02-18T17:10:07.769Z,9.40
2023-02-18T17:12:37.625Z,9.40
2023-02-18T17:15:11.366Z,9.40
2023-02-18T17:17:38.042Z,9.40
2023-02-18T17:20:04.736Z,9.40
2023-02-18T17:22:31.409Z,9.40
2023-02-18T17:24:58.004Z,9.40
2023-02-18T17:27:24.754Z,9.40
2023-02-18T17:29:51.455Z,9.40
2023-02-18T17:32:18.510Z,9.40
2023-02-18T17:34:45.251Z,9.40
2023-02-18T17:37:15.053Z,9.30
2023-02-18T17:39:42.087Z,9.30
2023-02-18T17:42:10.182Z,9.30
2023-02-18T17:44:37.544Z,9.30
2023-02-18T17:47:04.311Z,9.30
2023-02-18T17:49:31.180Z,9.30
2023-02-18T17:51:58.172Z,9.20
2023-02-18T17:54:27.901Z,9.20
2023-02-18T17:56:55.672Z,9.20
2023-02-18T17:59:22.423Z,9.20
2023-02-18T18:01:49.194Z,9.20
2023-02-18T18:04:17.447Z,9.10
2023-02-18T18:06:45.889Z,9.10
2023-02-18T18:09:12.714Z,9.10
2023-02-18T18:11:39.556Z,9.20
2023-02-18T18:14:06.194Z,9.20
2023-02-18T18:16:32.976Z,9.20
2023-02-18T18:18:59.632Z,9.20
2023-02-18T18:21:26.341Z,9.30
2023-02-18T18:23:53.060Z,9.20
2023-02-18T18:26:19.721Z,9.30
2023-02-18T18:28:46.460Z,9.30
2023-02-18T18:31:15.204Z,9.30
2023-02-18T18:33:41.976Z,9.30
2023-02-18T18:36:09.102Z,9.30
2023-02-18T18:38:35.881Z,9.40
2023-02-18T18:41:02.611Z,9.40
2023-02-18T18:43:33.412Z,9.50
2023-02-18T18:46:00.513Z,9.50
2023-02-18T18:48:27.299Z,9.50
2023-02-18T18:50:54.310Z,9.50
2023-02-18T18:53:29.777Z,9.50
2023-02-18T18:55:57.907Z,9.40
2023-02-18T18:58:24.906Z,9.40
2023-02-18T19:00:55.995Z,9.40
2023-02-18T19:03:23.387Z,9.50
2023-02-18T19:05:50.096Z,9.40
2023-02-18T19:08:18.002Z,9.50
2023-02-18T19:10:45.871Z,9.50
2023-02-18T19:13:19.968Z,9.60
2023-02-18T19:15:47.432Z,9.60
2023-02-18T19:18:15.493Z,9.60
2023-02-18T19:20:43.060Z,9.50
2023-02-18T19:23:10.106Z,9.50
2023-02-18T19:25:37.649Z,9.50
2023-02-18T19:28:04.928Z,9.50
2023-02-18T19:30:33.022Z,9.50
2023-02-18T19:33:00.733Z,9.50
2023-02-18T19:35:27.980Z,9.50
2023-02-18T19:37:54.854Z,9.40
2023-02-18T19:40:23.357Z,9.50
2023-02-18T19:42:50.345Z,9.50
2023-02-18T19:45:17.354Z,9.50
2023-02-18T19:47:44.128Z,9.50
2023-02-18T19:50:12.565Z,9.50
2023-02-18T19:52:39.319Z,9.50
2023-02-18T19:55:06.577Z,9.50
2023-02-18T19:57:34.668Z,9.50
2023-02-18T20:00:02.050Z,9.50
2023-02-18T20:02:39.557Z,9.50
2023-02-18T20:05:07.362Z,9.50
2023-02-18T20:07:36.195Z,9.50
2023-02-18T20:10:06.078Z,9.50
2023-02-18T20:12:32.715Z,9.50
2023-02-18T20:14:59.364Z,9.50
2023-02-18T20:17:26.233Z,9.50
2023-02-18T20:19:52.962Z,9.50
2023-02-18T20:22:19.607Z,9.50
2023-02-18T20:24:47.049Z,9.40
2023-02-18T20:27:14.060Z,9.50
2023-02-18T20:29:40.728Z,9.50
2023-02-18T20:32:07.910Z,9.50
2023-02-18T20:34:34.711Z,9.40
2023-02-18T20:37:01.475Z,9.40
2023-02-18T20:39:28.166Z,9.40
2023-02-18T20:41:55.017Z,9.40
2023-02-18T20:44:21.750Z,9.40
2023-02-18T20:46:49.028Z,9.40
2023-02-18T20:49:17.212Z,9.40
2023-02-18T20:51:43.937Z,9.40
2023-02-18T20:54:15.523Z,9.40
2023-02-18T20:56:43.546Z,9.50
2023-02-18T20:59:14.109Z,9.50
2023-02-18T21:01:41.618Z,9.50
2023-02-18T21:04:10.264Z,9.50
2023-02-18T21:06:37.136Z,9.50
2023-02-18T21:09:04.053Z,9.50
2023-02-18T21:11:30.689Z,9.40
2023-02-18T21:13:57.861Z,9.40
2023-02-18T21:16:25.713Z,9.30
2023-02-18T21:18:52.486Z,9.30
2023-02-18T21:21:20.401Z,9.30
2023-02-18T21:23:47.176Z,9.20
2023-02-18T21:26:16.006Z,9.20
2023-02-18T21:28:43.487Z,9.20
2023-02-18T21:31:36.579Z,9.20
2023-02-18T21:34:04.233Z,9.10
2023-02-18T21:36:31.805Z,9.20
2023-02-18T21:39:00.117Z,9.10
2023-02-18T21:41:27.077Z,9.10
2023-02-18T21:43:53.715Z,9.00
2023-02-18T21:46:20.428Z,9.00
2023-02-18T21:49:02.402Z,8.90
2023-02-18T21:51:48.381Z,8.90
2023-02-18T21:54:15.657Z,8.90
2023-02-18T21:56:42.455Z,8.80
2023-02-18T21:59:09.083Z,8.90
2023-02-18T22:01:35.831Z,8.80
2023-02-18T22:04:02.464Z,8.80
2023-02-18T22:06:29.087Z,8.90
2023-02-18T22:08:55.784Z,8.90
2023-02-18T22:11:22.400Z,8.90
2023-02-18T22:13:49.063Z,8.90
2023-02-18T22:16:15.895Z,8.90
2023-02-18T22:18:42.518Z,9.00
2023-02-18T22:21:09.879Z,9.00
2023-02-18T22:23:36.806Z,9.00
2023-02-18T22:26:04.381Z,9.00
2023-02-18T22:28:31.117Z,8.90
2023-02-18T22:30:57.859Z,8.90
2023-02-18T22:33:24.479Z,8.90
2023-02-18T22:35:51.084Z,8.90
2023-02-18T22:38:17.838Z,8.80
2023-02-18T22:40:44.545Z,8.80
2023-02-18T22:43:11.234Z,8.70
2023-02-18T22:45:37.963Z,8.70
2023-02-18T22:48:04.743Z,8.70
2023-02-18T22:50:31.325Z,8.60
2023-02-18T22:52:58.002Z,8.60
2023-02-18T22:55:24.641Z,8.60
2023-02-18T22:57:51.271Z,8.60
2023-02-18T23:00:18.147Z,8.60
2023-02-18T23:02:50.219Z,8.60
2023-02-18T23:05:16.954Z,8.60
2023-02-18T23:07:43.594Z,8.50
2023-02-18T23:10:10.226Z,8.50
2023-02-18T23:12:36.997Z,8.50
2023-02-18T23:15:03.774Z,8.50
2023-02-18T23:17:30.421Z,8.50
2023-02-18T23:19:57.161Z,8.50
2023-02-18T23:22:28.714Z,8.50
2023-02-18T23:24:55.368Z,8.50
2023-02-18T23:27:23.245Z,8.50
2023-02-18T23:29:50.306Z,8.50
2023-02-18T23:32:17.235Z,8.50
2023-02-18T23:34:43.932Z,8.50
2023-02-18T23:37:11.022Z,8.50
2023-02-18T23:39:38.092Z,8.50
2023-02-18T23:42:04.855Z,8.50
2023-02-18T23:44:31.514Z,8.50
2023-02-18T23:46:58.398Z,8.50
2023-02-18T23:49:25.873Z,8.50
2023-02-18T23:51:53.498Z,8.50
2023-02-18T23:54:20.821Z,8.50
2023-02-18T23:56:47.572Z,8.50
2023-02-18T23:59:14.461Z,8.50
